Time;durP1;ratioP1;P1;durP2;ratioP2;P2;SDS_P1;SDS_P2;PMS_P1;PMS_P2;Temp;Humidity;BMP_temperature;BMP_pressure;BME280_temperature;BME280_humidity;BME280_pressure;Samples;Min_cycle;Max_cycle;Signal;HPM_P1;HPM_P2
2022/01/01 00:02:23;;;;;;;136.85;90.45;;;10.20;99.90;;;;;;5057154;28;20044;-70
2022/01/01 00:04:49;;;;;;;74.95;43.15;;;10.20;99.90;;;;;;5057188;28;20123;-70
2022/01/01 00:07:16;;;;;;;62.70;27.30;;;10.20;99.90;;;;;;5074023;28;20037;-70
2022/01/01 00:09:45;;;;;;;62.42;21.50;;;10.10;99.90;;;;;;5057201;28;20488;-70
2022/01/01 00:12:11;;;;;;;52.92;19.17;;;10.10;99.90;;;;;;5073710;28;20529;-70
2022/01/01 00:14:38;;;;;;;55.85;19.05;;;10.10;99.90;;;;;;5073480;28;20052;-70
2022/01/01 00:17:06;;;;;;;54.30;18.77;;;10.00;99.90;;;;;;5073920;28;20060;-70
2022/01/01 00:19:32;;;;;;;49.20;19.20;;;10.00;99.90;;;;;;5073711;28;20509;-70
2022/01/01 00:21:58;;;;;;;51.58;18.45;;;9.90;99.90;;;;;;5054791;28;20048;-70
2022/01/01 00:24:24;;;;;;;49.67;17.83;;;9.90;99.90;;;;;;5073845;28;20385;-70
2022/01/01 00:26:50;;;;;;;54.97;17.60;;;9.90;99.90;;;;;;5073373;28;20049;-70
2022/01/01 00:29:16;;;;;;;60.60;20.70;;;9.90;99.90;;;;;;5073538;28;20040;-70
2022/01/01 00:31:42;;;;;;;54.15;18.92;;;9.80;99.90;;;;;;5056925;28;20048;-70
2022/01/01 00:34:08;;;;;;;50.20;19.48;;;9.80;99.90;;;;;;4989956;28;20070;-70
2022/01/01 00:36:34;;;;;;;51.75;21.88;;;9.70;99.90;;;;;;4955421;28;20121;-70
2022/01/01 00:39:00;;;;;;;50.58;18.73;;;9.70;99.90;;;;;;5058042;28;20048;-70
2022/01/01 00:41:26;;;;;;;58.22;19.65;;;9.70;99.90;;;;;;5056506;28;20119;-70
2022/01/01 00:43:51;;;;;;;64.20;22.52;;;9.60;99.90;;;;;;5073435;28;20115;-70
2022/01/01 00:46:17;;;;;;;56.65;20.70;;;9.60;99.90;;;;;;5073002;28;20106;-70
2022/01/01 00:48:43;;;;;;;56.85;22.05;;;9.60;99.90;;;;;;5073177;28;20048;-70
2022/01/01 00:51:09;;;;;;;64.72;23.10;;;9.50;99.90;;;;;;5071005;28;20051;-70
2022/01/01 00:53:35;;;;;;;54.50;20.23;;;9.50;99.90;;;;;;5073083;28;20079;-70
2022/01/01 00:56:00;;;;;;;61.50;20.85;;;9.50;99.90;;;;;;5073248;28;20044;-70
2022/01/01 00:58:26;;;;;;;56.03;19.20;;;9.50;99.90;;;;;;5056527;28;20377;-70
2022/01/01 01:00:52;;;;;;;59.92;22.23;;;9.60;99.90;;;;;;5055993;28;20504;-70
2022/01/01 01:03:18;;;;;;;61.78;23.10;;;9.60;99.90;;;;;;5056067;28;20127;-70
2022/01/01 01:05:46;;;;;;;62.72;20.98;;;9.60;99.90;;;;;;5073078;28;20044;-70
2022/01/01 01:08:14;;;;;;;57.20;18.60;;;9.50;99.90;;;;;;5072674;28;20047;-70
2022/01/01 01:10:40;;;;;;;56.28;19.15;;;9.50;99.90;;;;;;5072767;28;20036;-70
2022/01/01 01:13:08;;;;;;;56.80;22.83;;;9.50;99.90;;;;;;5055795;28;20667;-70
2022/01/01 01:15:34;;;;;;;68.80;22.52;;;9.60;99.90;;;;;;5072662;28;20044;-70
2022/01/01 01:18:01;;;;;;;63.85;26.58;;;9.60;99.90;;;;;;5072521;28;20075;-70
2022/01/01 01:20:28;;;;;;;72.82;27.83;;;9.60;99.90;;;;;;5055704;28;20507;-70
2022/01/01 01:22:55;;;;;;;81.68;35.58;;;9.60;99.90;;;;;;5070019;28;20056;-70
2022/01/01 01:25:23;;;;;;;74.30;31.45;;;9.60;99.90;;;;;;5055695;28;20044;-70
2022/01/01 01:27:50;;;;;;;86.47;39.00;;;9.70;99.90;;;;;;5072197;28;20044;-70
2022/01/01 01:30:17;;;;;;;101.50;42.53;;;9.70;99.90;;;;;;5055773;28;20043;-71
2022/01/01 01:32:46;;;;;;;101.13;45.33;;;9.70;99.90;;;;;;5048586;28;20107;-70
2022/01/01 01:35:13;;;;;;;111.72;49.67;;;9.70;99.90;;;;;;4955032;28;20387;-70
2022/01/01 01:37:39;;;;;;;102.28;50.25;;;9.70;99.90;;;;;;5000144;28;20032;-70
2022/01/01 01:40:06;;;;;;;99.68;51.33;;;9.60;99.90;;;;;;5072286;28;20043;-70
2022/01/01 01:42:34;;;;;;;114.03;53.10;;;9.60;99.90;;;;;;5071975;28;20114;-70
2022/01/01 01:45:03;;;;;;;121.63;57.55;;;9.60;99.90;;;;;;5055435;28;20687;-70
2022/01/01 01:47:31;;;;;;;116.73;57.87;;;9.60;99.90;;;;;;5071943;28;20037;-70
2022/01/01 01:49:59;;;;;;;118.25;57.38;;;9.60;99.90;;;;;;5072129;28;20313;-70
2022/01/01 01:52:32;;;;;;;116.43;58.25;;;9.60;99.90;;;;;;5069508;28;20044;-70
2022/01/01 01:54:59;;;;;;;131.15;59.92;;;9.60;99.90;;;;;;5055134;28;20041;-70
2022/01/01 01:57:25;;;;;;;127.35;60.85;;;9.60;99.90;;;;;;5071653;28;20041;-70
2022/01/01 01:59:52;;;;;;;131.93;63.67;;;9.60;99.90;;;;;;5071773;28;20556;-71
2022/01/01 02:02:18;;;;;;;126.75;64.30;;;9.60;99.90;;;;;;5071557;28;20127;-70
2022/01/01 02:04:44;;;;;;;124.07;66.38;;;9.60;99.90;;;;;;5055205;28;20451;-70
2022/01/01 02:07:11;;;;;;;141.85;67.63;;;9.60;99.90;;;;;;5055152;28;20317;-69
2022/01/01 02:09:38;;;;;;;133.63;70.35;;;9.60;99.90;;;;;;5071897;28;20127;-69
2022/01/01 02:12:06;;;;;;;141.07;74.55;;;9.60;99.90;;;;;;5071628;28;20040;-70
2022/01/01 02:14:54;;;;;;;139.90;73.25;;;9.60;99.90;;;;;;5070739;28;20049;-70
2022/01/01 02:17:20;;;;;;;152.48;76.45;;;9.60;99.90;;;;;;5071658;28;20098;-70
2022/01/01 02:19:55;;;;;;;148.02;75.32;;;9.60;99.90;;;;;;5071239;28;20044;-70
2022/01/01 02:22:23;;;;;;;152.07;73.85;;;9.60;99.90;;;;;;5052481;28;20049;-70
2022/01/01 02:24:49;;;;;;;145.70;73.63;;;9.60;99.90;;;;;;5071309;28;20174;-70
2022/01/01 02:27:15;;;;;;;138.10;71.40;;;9.60;99.90;;;;;;5054798;28;20119;-70
2022/01/01 02:29:40;;;;;;;153.85;75.05;;;9.60;99.90;;;;;;5071635;28;20063;-70
2022/01/01 02:32:13;;;;;;;137.25;65.60;;;9.70;99.90;;;;;;5054811;28;20120;-70
2022/01/01 02:34:40;;;;;;;139.75;69.22;;;9.70;99.90;;;;;;4951572;29;20055;-70
2022/01/01 02:37:06;;;;;;;137.65;66.03;;;9.60;99.90;;;;;;4942513;28;20088;-70
2022/01/01 02:39:32;;;;;;;130.32;67.28;;;9.70;99.90;;;;;;5054493;28;20127;-70
2022/01/01 02:41:58;;;;;;;138.27;69.97;;;9.60;99.90;;;;;;5071294;28;20040;-70
2022/01/01 02:44:26;;;;;;;139.65;69.68;;;9.60;99.90;;;;;;5071428;28;20127;-70
2022/01/01 02:46:56;;;;;;;125.38;68.13;;;9.60;99.90;;;;;;5054667;28;20117;-70
2022/01/01 02:49:22;;;;;;;145.05;70.65;;;9.60;99.90;;;;;;5054392;28;20499;-70
2022/01/01 02:51:48;;;;;;;134.57;69.47;;;9.60;99.90;;;;;;5069164;28;20131;-70
2022/01/01 02:54:14;;;;;;;149.43;71.03;;;9.60;99.90;;;;;;5054434;28;20433;-70
2022/01/01 02:56:39;;;;;;;140.55;72.28;;;9.60;99.90;;;;;;5071040;28;20103;-70
2022/01/01 02:59:05;;;;;;;152.55;77.70;;;9.60;99.90;;;;;;5071010;28;20039;-70
2022/01/01 03:01:31;;;;;;;142.70;75.25;;;9.60;99.90;;;;;;5071080;28;20083;-70
2022/01/01 03:03:57;;;;;;;154.40;76.47;;;9.70;99.90;;;;;;5071352;28;20083;-70
2022/01/01 03:06:23;;;;;;;149.32;74.45;;;9.70;99.90;;;;;;5071079;28;20044;-70
2022/01/01 03:08:52;;;;;;;147.75;74.28;;;9.80;99.90;;;;;;5071126;28;20040;-70
2022/01/01 03:11:19;;;;;;;158.07;77.53;;;9.80;99.90;;;;;;5071072;28;20072;-70
2022/01/01 03:13:45;;;;;;;151.80;79.47;;;9.80;99.90;;;;;;5070829;28;20051;-70
2022/01/01 03:16:12;;;;;;;150.73;79.63;;;9.90;99.90;;;;;;5054301;28;20045;-70
2022/01/01 03:18:39;;;;;;;157.15;83.35;;;9.90;99.90;;;;;;5071111;28;20101;-70
2022/01/01 03:21:06;;;;;;;155.65;77.93;;;9.90;99.90;;;;;;5069022;28;20059;-70
2022/01/01 03:23:32;;;;;;;168.13;85.60;;;9.90;99.90;;;;;;5070723;28;20091;-70
2022/01/01 03:25:59;;;;;;;168.43;87.60;;;9.90;99.90;;;;;;5073373;28;20091;-70
2022/01/01 03:28:25;;;;;;;166.23;87.30;;;9.90;99.90;;;;;;5058012;28;20040;-70
2022/01/01 03:30:51;;;;;;;156.68;85.28;;;9.90;99.90;;;;;;5058123;28;20503;-70
2022/01/01 03:33:17;;;;;;;175.07;89.93;;;9.90;99.90;;;;;;5010470;28;20084;-70
2022/01/01 03:35:43;;;;;;;171.35;91.63;;;9.90;99.90;;;;;;4956478;28;20074;-70
2022/01/01 03:38:08;;;;;;;165.60;89.03;;;10.00;99.90;;;;;;5007029;28;20037;-70
2022/01/01 03:40:34;;;;;;;167.75;93.85;;;10.00;99.90;;;;;;5074511;28;20044;-70
2022/01/01 03:43:00;;;;;;;170.90;90.32;;;10.10;99.90;;;;;;5074320;28;20044;-70
2022/01/01 03:45:26;;;;;;;168.73;94.90;;;10.10;99.90;;;;;;5074484;28;20044;-70
2022/01/01 03:47:52;;;;;;;171.10;90.60;;;10.10;99.90;;;;;;5057729;28;20511;-70
2022/01/01 03:50:18;;;;;;;170.80;90.95;;;10.10;99.90;;;;;;5074355;28;20080;-70
2022/01/01 03:52:45;;;;;;;163.35;87.93;;;10.20;99.90;;;;;;5071782;28;20459;-70
2022/01/01 03:55:13;;;;;;;165.20;89.90;;;10.20;99.90;;;;;;5074112;28;20044;-70
2022/01/01 03:57:39;;;;;;;164.45;87.60;;;10.20;99.90;;;;;;5074102;28;20525;-70
2022/01/01 04:00:08;;;;;;;147.85;79.75;;;10.20;99.90;;;;;;5074041;28;20469;-70
2022/01/01 04:02:34;;;;;;;151.75;81.93;;;10.30;99.90;;;;;;5053138;28;20047;-70
2022/01/01 04:05:00;;;;;;;154.13;81.97;;;10.30;99.90;;;;;;5074012;28;20045;-70
2022/01/01 04:07:26;;;;;;;141.65;76.60;;;10.30;99.90;;;;;;5073994;28;20044;-70
2022/01/01 04:09:52;;;;;;;143.20;74.70;;;10.30;99.90;;;;;;5074097;28;20040;-70
2022/01/01 04:12:17;;;;;;;137.88;71.65;;;10.30;99.90;;;;;;5057415;28;20531;-70
2022/01/01 04:14:43;;;;;;;137.30;73.28;;;10.40;99.90;;;;;;5056829;28;20048;-70
2022/01/01 04:17:10;;;;;;;136.57;70.55;;;10.40;99.90;;;;;;5057175;28;20037;-70
2022/01/01 04:19:39;;;;;;;123.03;66.25;;;10.40;99.90;;;;;;5073560;28;20080;-69
2022/01/01 04:22:13;;;;;;;119.28;61.80;;;10.40;99.90;;;;;;5055013;28;20393;-70
2022/01/01 04:24:40;;;;;;;122.63;60.17;;;10.50;99.90;;;;;;5073701;28;20112;-70
2022/01/01 04:27:07;;;;;;;119.82;61.40;;;10.50;99.90;;;;;;5073826;28;20036;-70
2022/01/01 04:29:34;;;;;;;101.88;50.70;;;10.50;99.90;;;;;;5073756;28;20037;-70
2022/01/01 04:32:00;;;;;;;113.72;54.83;;;10.50;99.90;;;;;;5073490;28;20051;-70
2022/01/01 04:34:27;;;;;;;115.97;54.13;;;10.60;99.90;;;;;;4977523;28;20403;-70
2022/01/01 04:37:02;;;;;;;105.45;50.53;;;10.60;99.90;;;;;;4954731;28;20050;-70
2022/01/01 04:39:28;;;;;;;107.40;51.22;;;10.60;99.90;;;;;;5073609;28;20052;-70
2022/01/01 04:41:54;;;;;;;107.70;48.25;;;10.60;99.90;;;;;;5057016;28;20040;-70
2022/01/01 04:44:20;;;;;;;105.15;47.85;;;10.60;99.90;;;;;;5073305;28;20496;-70
2022/01/01 04:46:45;;;;;;;118.55;46.75;;;10.60;99.90;;;;;;5073042;28;20044;-70
2022/01/01 04:49:11;;;;;;;98.47;41.67;;;10.70;99.90;;;;;;5073003;28;20131;-69
2022/01/01 04:51:37;;;;;;;89.05;40.20;;;10.70;99.90;;;;;;5070825;28;20075;-70
2022/01/01 04:54:03;;;;;;;100.80;40.45;;;10.70;99.90;;;;;;5073064;28;20048;-70
2022/01/01 04:56:32;;;;;;;91.70;38.50;;;10.70;99.90;;;;;;5056651;28;20093;-69
2022/01/01 04:58:58;;;;;;;90.72;37.55;;;10.60;99.90;;;;;;5073088;28;20040;-70
2022/01/01 05:01:24;;;;;;;81.97;36.00;;;10.70;99.90;;;;;;5072736;28;20050;-70
2022/01/01 05:03:50;;;;;;;80.63;31.73;;;10.70;99.90;;;;;;5056367;28;20099;-70
2022/01/01 05:06:15;;;;;;;75.38;32.28;;;10.70;99.90;;;;;;5056393;28;20036;-70
2022/01/01 05:08:41;;;;;;;88.07;35.45;;;10.70;99.90;;;;;;5072580;28;20568;-70
2022/01/01 05:11:07;;;;;;;73.97;31.13;;;10.70;99.90;;;;;;5072922;28;20079;-70
2022/01/01 05:13:33;;;;;;;71.28;30.42;;;10.70;99.90;;;;;;5072780;28;20117;-70
2022/01/01 05:15:59;;;;;;;73.57;29.88;;;10.70;99.90;;;;;;5072486;28;20119;-70
2022/01/01 05:18:25;;;;;;;65.38;29.13;;;10.70;99.90;;;;;;5072637;28;20123;-70
2022/01/01 05:20:51;;;;;;;68.18;28.63;;;10.70;99.90;;;;;;5072207;28;20140;-70
2022/01/01 05:23:17;;;;;;;74.03;30.10;;;10.70;99.90;;;;;;5070333;28;20048;-70
2022/01/01 05:25:43;;;;;;;80.15;32.08;;;10.70;99.90;;;;;;5055959;28;20399;-70
2022/01/01 05:28:08;;;;;;;69.47;30.13;;;10.70;99.90;;;;;;5055811;28;20515;-70
2022/01/01 05:30:34;;;;;;;68.00;29.05;;;10.70;99.90;;;;;;5072213;28;20067;-70
2022/01/01 05:33:01;;;;;;;70.65;28.30;;;10.70;99.90;;;;;;5020522;28;20326;-70
2022/01/01 05:35:27;;;;;;;70.40;28.23;;;10.70;99.90;;;;;;4970651;28;20046;-70
2022/01/01 05:37:53;;;;;;;62.60;29.38;;;10.70;99.90;;;;;;4994130;28;20071;-70
2022/01/01 05:40:19;;;;;;;64.82;27.52;;;10.80;99.90;;;;;;5072132;28;20080;-70
2022/01/01 05:42:45;;;;;;;64.03;29.33;;;10.80;99.90;;;;;;5072231;28;20193;-70
2022/01/01 05:45:11;;;;;;;67.82;27.10;;;10.80;99.90;;;;;;5055430;28;20131;-70
2022/01/01 05:47:37;;;;;;;65.20;25.35;;;10.80;99.90;;;;;;5071873;28;20033;-70
2022/01/01 05:50:04;;;;;;;64.57;26.75;;;10.80;99.90;;;;;;5071451;28;20390;-70
2022/01/01 05:52:30;;;;;;;67.05;26.10;;;10.80;99.90;;;;;;5052763;28;20037;-70
2022/01/01 05:54:56;;;;;;;60.45;26.15;;;10.90;99.90;;;;;;5071762;28;20044;-70
2022/01/01 05:57:22;;;;;;;61.80;25.98;;;10.90;99.90;;;;;;5071668;28;20044;-70
2022/01/01 05:59:48;;;;;;;59.33;26.25;;;10.90;99.90;;;;;;5071719;28;20041;-70
2022/01/01 06:02:13;;;;;;;61.38;25.27;;;10.90;99.90;;;;;;5071888;28;20115;-70
2022/01/01 06:04:39;;;;;;;52.97;24.02;;;10.90;99.90;;;;;;5071846;28;20481;-70
2022/01/01 06:07:07;;;;;;;62.58;25.55;;;10.90;99.90;;;;;;5055068;28;20397;-70
2022/01/01 06:09:33;;;;;;;56.22;23.83;;;11.00;99.90;;;;;;5071621;28;20481;-70
2022/01/01 06:11:59;;;;;;;54.88;23.98;;;11.00;99.90;;;;;;5071507;28;20079;-70
2022/01/01 06:14:25;;;;;;;50.20;22.17;;;11.00;99.90;;;;;;5071507;28;20083;-70
2022/01/01 06:16:51;;;;;;;58.20;22.52;;;11.00;99.90;;;;;;5071516;28;20067;-70
2022/01/01 06:19:16;;;;;;;53.30;22.15;;;11.00;99.90;;;;;;5059542;28;20603;-70
2022/01/01 06:21:42;;;;;;;54.33;23.67;;;11.00;99.90;;;;;;5093053;28;20537;-70
2022/01/01 06:24:08;;;;;;;49.03;22.42;;;11.10;99.90;;;;;;5095175;28;20510;-70
2022/01/01 06:26:34;;;;;;;58.17;21.85;;;11.10;99.90;;;;;;5095096;28;20126;-70
2022/01/01 06:29:01;;;;;;;56.67;22.25;;;11.10;99.90;;;;;;5095035;28;20487;-70
2022/01/01 06:31:28;;;;;;;45.65;22.00;;;11.10;99.90;;;;;;5078061;28;20464;-70
2022/01/01 06:33:54;;;;;;;52.60;21.55;;;11.10;99.90;;;;;;5021251;28;20094;-70
2022/01/01 06:36:20;;;;;;;51.63;22.25;;;11.10;99.90;;;;;;4976341;28;20371;-70
2022/01/01 06:38:46;;;;;;;55.97;22.83;;;11.10;99.90;;;;;;5069545;28;20065;-70
2022/01/01 06:41:12;;;;;;;45.47;21.23;;;11.20;99.90;;;;;;5094992;28;20501;-70
2022/01/01 06:43:39;;;;;;;47.50;22.67;;;11.20;99.90;;;;;;5094813;28;20043;-70
2022/01/01 06:46:06;;;;;;;44.95;20.80;;;11.20;99.90;;;;;;5095002;28;20365;-70
2022/01/01 06:48:33;;;;;;;44.08;20.15;;;11.20;99.90;;;;;;5077820;28;20044;-70
2022/01/01 06:51:01;;;;;;;48.92;22.08;;;11.20;99.90;;;;;;5094727;28;20500;-70
2022/01/01 06:53:27;;;;;;;57.55;24.48;;;11.20;99.90;;;;;;5092772;28;20104;-69
2022/01/01 06:55:55;;;;;;;51.15;23.65;;;11.20;99.90;;;;;;5094738;28;20040;-68
2022/01/01 06:58:22;;;;;;;46.92;22.95;;;11.20;99.90;;;;;;5094662;28;20044;-70
2022/01/01 07:00:48;;;;;;;49.05;22.83;;;11.30;99.90;;;;;;5097288;28;20039;-69
2022/01/01 07:03:20;;;;;;;56.50;25.40;;;11.20;99.90;;;;;;5098589;28;20044;-69
2022/01/01 07:05:45;;;;;;;52.33;24.52;;;11.20;99.90;;;;;;5098978;28;20421;-69
2022/01/01 07:08:11;;;;;;;44.65;23.17;;;11.30;99.90;;;;;;5116917;28;20105;-69
2022/01/01 07:10:38;;;;;;;50.05;25.02;;;11.30;99.90;;;;;;5081886;28;20040;-69
2022/01/01 07:13:04;;;;;;;57.38;27.05;;;11.30;99.90;;;;;;5098790;28;20475;-69
2022/01/01 07:15:30;;;;;;;48.25;25.10;;;11.40;99.90;;;;;;5098767;28;20046;-69
2022/01/01 07:17:56;;;;;;;48.97;22.15;;;11.40;99.90;;;;;;5098635;28;20531;-69
2022/01/01 07:20:22;;;;;;;54.28;26.50;;;11.40;99.90;;;;;;5083503;28;20396;-69
2022/01/01 07:22:47;;;;;;;57.10;27.23;;;11.40;99.90;;;;;;5056165;28;20036;-69
2022/01/01 07:25:15;;;;;;;52.45;27.25;;;11.50;99.90;;;;;;5074726;28;20045;-69
2022/01/01 07:27:41;;;;;;;56.40;25.58;;;11.50;99.90;;;;;;5074589;28;20485;-69
2022/01/01 07:30:08;;;;;;;54.05;26.92;;;11.50;99.90;;;;;;5074669;28;20052;-69
2022/01/01 07:32:39;;;;;;;59.03;26.33;;;11.50;99.90;;;;;;5057475;28;20038;-69
2022/01/01 07:35:05;;;;;;;56.60;28.25;;;11.60;99.90;;;;;;4956502;28;20047;-69
2022/01/01 07:37:31;;;;;;;53.78;26.52;;;11.60;99.90;;;;;;4996637;28;20040;-70
2022/01/01 07:39:57;;;;;;;61.65;27.98;;;11.60;99.90;;;;;;5074771;28;20044;-69
2022/01/01 07:42:22;;;;;;;60.42;29.20;;;11.70;99.90;;;;;;5074467;28;20037;-69
2022/01/01 07:44:48;;;;;;;52.05;26.02;;;11.70;99.90;;;;;;5074210;28;20143;-69
2022/01/01 07:47:14;;;;;;;55.13;27.60;;;11.70;99.90;;;;;;5074414;28;20057;-69
2022/01/01 07:49:42;;;;;;;54.53;26.73;;;11.70;99.90;;;;;;5074300;28;20133;-69
2022/01/01 07:52:08;;;;;;;46.55;27.35;;;11.70;99.90;;;;;;5055322;28;20048;-69
2022/01/01 07:54:34;;;;;;;59.28;27.85;;;11.70;99.90;;;;;;5057499;28;20063;-69
2022/01/01 07:57:00;;;;;;;52.58;24.75;;;11.80;99.90;;;;;;5074212;28;20047;-69
2022/01/01 07:59:26;;;;;;;44.53;22.73;;;11.80;99.90;;;;;;5074168;28;20036;-69
2022/01/01 08:01:51;;;;;;;51.03;25.85;;;11.80;99.90;;;;;;5057329;28;20527;-69
2022/01/01 08:04:17;;;;;;;41.60;21.25;;;11.90;99.90;;;;;;5073751;28;20101;-70
2022/01/01 08:06:43;;;;;;;51.88;23.65;;;11.80;99.90;;;;;;5074159;28;20080;-69
2022/01/01 08:09:09;;;;;;;44.60;21.33;;;11.90;99.90;;;;;;5073949;28;20397;-69
2022/01/01 08:11:35;;;;;;;40.80;23.88;;;11.90;99.90;;;;;;5073016;28;20041;-69
2022/01/01 08:14:01;;;;;;;45.53;22.83;;;11.90;99.90;;;;;;5073606;28;20083;-69
2022/01/01 08:16:26;;;;;;;43.35;22.98;;;11.80;99.90;;;;;;5057082;28;20121;-70
2022/01/01 08:18:52;;;;;;;46.88;22.90;;;11.80;99.90;;;;;;5073855;28;20190;-69
2022/01/01 08:21:18;;;;;;;45.00;22.30;;;11.80;99.90;;;;;;5071306;28;20470;-70
2022/01/01 08:23:44;;;;;;;45.72;24.83;;;11.80;99.90;;;;;;5073796;28;20048;-70
2022/01/01 08:26:10;;;;;;;43.30;23.60;;;11.70;99.90;;;;;;5073937;28;20480;-69
2022/01/01 08:28:36;;;;;;;43.00;23.17;;;11.70;99.90;;;;;;5073419;28;20489;-70
2022/01/01 08:31:01;;;;;;;43.47;23.17;;;11.70;99.90;;;;;;5073477;28;20094;-69
2022/01/01 08:33:27;;;;;;;44.35;22.40;;;11.60;99.90;;;;;;5019364;28;20038;-69
2022/01/01 08:35:53;;;;;;;41.90;20.77;;;11.70;99.90;;;;;;4971644;28;20043;-70
2022/01/01 08:38:19;;;;;;;42.15;22.02;;;11.70;99.90;;;;;;5029575;28;20036;-69
2022/01/01 08:40:45;;;;;;;38.45;20.33;;;11.60;99.90;;;;;;5056955;28;20460;-70
2022/01/01 08:43:11;;;;;;;39.42;21.73;;;11.60;99.90;;;;;;5073489;28;20404;-69
2022/01/01 08:45:38;;;;;;;42.17;20.88;;;11.70;99.90;;;;;;5073169;28;20047;-69
2022/01/01 08:48:06;;;;;;;38.30;20.17;;;11.70;99.90;;;;;;5073135;28;20490;-69
2022/01/01 08:50:33;;;;;;;37.53;18.10;;;11.70;99.90;;;;;;5056444;28;20056;-69
2022/01/01 08:52:59;;;;;;;33.75;16.42;;;11.80;99.90;;;;;;5070926;28;20062;-69
2022/01/01 08:55:25;;;;;;;31.33;17.08;;;11.90;99.90;;;;;;5073115;28;20046;-68
2022/01/01 08:57:51;;;;;;;30.02;14.88;;;11.90;99.90;;;;;;5073248;28;20080;-68
2022/01/01 09:00:17;;;;;;;28.30;12.95;;;12.00;99.90;;;;;;5072855;28;20532;-70
2022/01/01 09:02:44;;;;;;;29.25;14.88;;;12.10;99.90;;;;;;5056091;28;20476;-69
2022/01/01 09:05:10;;;;;;;29.90;12.25;;;12.10;99.90;;;;;;5072812;28;20041;-68
2022/01/01 09:07:36;;;;;;;27.67;12.10;;;12.10;99.90;;;;;;5073108;28;20029;-69
2022/01/01 09:10:03;;;;;;;29.27;15.05;;;12.20;99.90;;;;;;5072604;28;20641;-68
2022/01/01 09:12:29;;;;;;;27.65;12.55;;;12.20;99.90;;;;;;5072995;28;20036;-69
2022/01/01 09:14:56;;;;;;;32.45;16.30;;;12.10;99.90;;;;;;5072398;28;20044;-68
2022/01/01 09:17:23;;;;;;;21.90;11.07;;;12.10;99.90;;;;;;5072646;28;20041;-68
2022/01/01 09:19:49;;;;;;;31.15;14.88;;;12.10;99.90;;;;;;5072755;28;20048;-69
2022/01/01 09:22:15;;;;;;;25.15;13.35;;;12.10;99.90;;;;;;5053518;28;20048;-69
2022/01/01 09:24:41;;;;;;;20.50;11.02;;;12.00;99.90;;;;;;5072154;28;20542;-68
2022/01/01 09:27:07;;;;;;;21.67;12.25;;;12.00;99.90;;;;;;5072379;28;20131;-68
2022/01/01 09:29:33;;;;;;;24.05;12.82;;;12.00;99.90;;;;;;5072493;28;20041;-69
2022/01/01 09:31:59;;;;;;;26.58;13.75;;;12.00;99.90;;;;;;5055539;28;20594;-69
2022/01/01 09:34:25;;;;;;;35.63;13.60;;;12.10;99.90;;;;;;4977752;28;20038;-69
2022/01/01 09:36:54;;;;;;;28.70;12.48;;;12.10;99.90;;;;;;4954480;28;20121;-69
2022/01/01 09:39:20;;;;;;;30.60;13.15;;;12.10;99.90;;;;;;5070745;28;20044;-70
2022/01/01 09:41:46;;;;;;;31.25;13.93;;;12.20;99.90;;;;;;5055764;28;20412;-71
2022/01/01 09:44:17;;;;;;;25.00;10.77;;;12.20;99.90;;;;;;4952082;28;20035;-69
2022/01/01 09:46:46;;;;;;;22.00;11.85;;;12.20;99.90;;;;;;4951504;28;20414;-70
2022/01/01 09:49:18;;;;;;;25.10;12.35;;;12.20;99.90;;;;;;4935382;29;20043;-69
2022/01/01 09:51:45;;;;;;;26.00;12.55;;;12.20;99.90;;;;;;4981612;28;20381;-70
2022/01/01 09:54:11;;;;;;;21.20;12.35;;;12.20;99.90;;;;;;4983536;28;20388;-70
2022/01/01 09:56:38;;;;;;;22.58;12.98;;;12.20;99.90;;;;;;4983532;28;20126;-70
2022/01/01 09:59:05;;;;;;;26.02;12.23;;;12.20;99.90;;;;;;4983374;28;20043;-69
2022/01/01 10:01:32;;;;;;;23.20;11.45;;;12.10;99.90;;;;;;4983239;28;20051;-69
2022/01/01 10:03:59;;;;;;;24.75;12.48;;;12.10;99.90;;;;;;4983455;28;20043;-69
2022/01/01 10:06:29;;;;;;;26.27;12.20;;;12.10;99.90;;;;;;4951435;29;20054;-68
2022/01/01 10:09:03;;;;;;;24.98;12.05;;;12.10;99.90;;;;;;4967381;28;20054;-69
2022/01/01 10:11:30;;;;;;;19.02;9.88;;;12.10;99.90;;;;;;4983328;28;20058;-69
2022/01/01 10:13:56;;;;;;;26.83;11.60;;;12.10;99.90;;;;;;4983477;28;20114;-69
2022/01/01 10:16:22;;;;;;;20.65;11.05;;;12.10;99.90;;;;;;4983230;28;20502;-69
2022/01/01 10:18:51;;;;;;;24.50;11.77;;;12.10;99.90;;;;;;4935096;29;20134;-69
2022/01/01 10:21:19;;;;;;;19.20;10.73;;;12.10;99.90;;;;;;4999147;28;20062;-69
2022/01/01 10:23:50;;;;;;;23.20;10.73;;;12.10;99.90;;;;;;4978142;28;20478;-69
2022/01/01 10:29:23;;;;;;;21.60;11.10;;;12.20;99.90;;;;;;4989386;28;19957;-69
2022/01/01 10:32:09;;;;;;;23.95;10.60;;;12.20;99.90;;;;;;4989417;28;20479;-68
2022/01/01 10:34:43;;;;;;;16.52;8.75;;;12.20;99.90;;;;;;4988435;28;20054;-69
2022/01/01 10:37:11;;;;;;;19.77;8.95;;;12.20;99.90;;;;;;5021864;28;20035;-69
2022/01/01 10:39:50;;;;;;;20.65;9.90;;;12.30;99.90;;;;;;5005054;28;20039;-68
2022/01/01 10:42:17;;;;;;;19.88;9.60;;;12.30;99.90;;;;;;4988439;28;20049;-68
2022/01/01 10:44:48;;;;;;;24.10;9.80;;;12.30;99.90;;;;;;4972712;28;20137;-69
2022/01/01 10:47:20;;;;;;;;;;;12.30;99.90;;;;;;4989667;28;20053;-69
2022/01/01 10:52:27;;;;;;;18.02;9.65;;;12.30;99.90;;;;;;4988330;28;20413;-69
2022/01/01 10:55:00;;;;;;;;;;;12.30;99.90;;;;;;4973148;28;20053;-68
2022/01/01 10:57:35;;;;;;;18.25;8.65;;;12.30;99.90;;;;;;4989468;28;19991;-68
2022/01/01 11:00:14;;;;;;;19.95;8.73;;;12.40;99.90;;;;;;4988955;28;20133;-69
2022/01/01 11:02:48;;;;;;;20.00;8.55;;;12.30;99.90;;;;;;4988982;28;20047;-69
2022/01/01 11:05:14;;;;;;;15.77;8.05;;;12.40;99.90;;;;;;4988838;28;20046;-69
2022/01/01 11:07:51;;;;;;;15.65;8.55;;;12.40;99.90;;;;;;4989014;28;20479;-68
2022/01/01 11:10:18;;;;;;;18.17;7.30;;;12.40;99.90;;;;;;4988858;28;20049;-70
2022/01/01 11:12:44;;;;;;;13.70;8.05;;;12.50;99.90;;;;;;4988814;28;20076;-69
2022/01/01 11:15:10;;;;;;;14.10;8.52;;;12.60;99.90;;;;;;4988969;28;20092;-67
2022/01/01 11:17:37;;;;;;;19.70;8.15;;;12.80;99.90;;;;;;4989127;28;20027;-67
2022/01/01 11:20:05;;;;;;;16.25;7.30;;;13.00;99.90;;;;;;4988815;28;20050;-67
2022/01/01 11:22:32;;;;;;;11.93;6.68;;;13.20;99.90;;;;;;4987119;28;20056;-67
2022/01/01 11:24:59;;;;;;;10.63;4.70;;;13.40;99.90;;;;;;4972817;28;20085;-67
2022/01/01 11:27:26;;;;;;;13.57;6.85;;;13.60;99.90;;;;;;4972608;28;20104;-67
2022/01/01 11:29:56;;;;;;;11.35;6.10;;;13.60;99.90;;;;;;4988723;28;20107;-67
2022/01/01 11:32:27;;;;;;;14.77;6.32;;;13.50;99.90;;;;;;4971169;28;20483;-67
2022/01/01 11:34:55;;;;;;;15.15;6.40;;;13.40;99.90;;;;;;4969052;28;20464;-67
2022/01/01 11:37:22;;;;;;;15.45;6.47;;;13.40;99.90;;;;;;4969118;28;20047;-69
2022/01/01 11:39:55;;;;;;;12.77;5.70;;;13.30;99.90;;;;;;4969214;28;20054;-69
2022/01/01 11:42:22;;;;;;;11.45;5.43;;;13.30;99.90;;;;;;4969112;28;20058;-69
2022/01/01 11:44:53;;;;;;;14.57;6.65;;;13.30;99.90;;;;;;4953149;28;20038;-69
2022/01/01 11:47:22;;;;;;;10.63;5.63;;;13.20;99.90;;;;;;4987818;28;20051;-68
2022/01/01 11:49:50;;;;;;;14.35;5.55;;;13.20;99.90;;;;;;4972772;28;20043;-69
2022/01/01 11:52:36;;;;;;;11.50;5.45;;;13.20;99.90;;;;;;5003017;28;20051;-69
2022/01/01 11:55:11;;;;;;;15.00;5.90;;;13.10;99.90;;;;;;4972267;28;20411;-69
2022/01/01 11:57:37;;;;;;;11.60;4.75;;;13.00;99.90;;;;;;4988551;28;20478;-68
2022/01/01 12:00:12;;;;;;;10.98;5.18;;;13.00;99.90;;;;;;4972500;28;20055;-68
2022/01/01 12:02:41;;;;;;;11.27;5.30;;;13.00;99.90;;;;;;4972283;28;20498;-69
2022/01/01 12:05:12;;;;;;;9.43;4.20;;;13.00;99.90;;;;;;4972125;28;20124;-69
2022/01/01 12:07:54;;;;;;;;;;;13.00;99.90;;;;;;4972782;28;20043;-68
2022/01/01 12:10:24;;;;;;;13.48;6.10;;;13.00;99.90;;;;;;4988315;28;20477;-69
2022/01/01 12:13:07;;;;;;;;;;;13.00;99.90;;;;;;5005033;28;20155;-68
2022/01/01 12:15:38;;;;;;;10.15;5.35;;;13.00;99.90;;;;;;4972281;28;19918;-69
2022/01/01 12:18:33;;;;;;;14.30;5.90;;;13.00;99.90;;;;;;4979747;28;20042;-69
2022/01/01 12:21:03;;;;;;;6.65;3.78;;;13.00;99.90;;;;;;4991254;28;20137;-69
2022/01/01 12:23:36;;;;;;;11.13;6.38;;;13.00;99.90;;;;;;4989453;28;20034;-68
2022/01/01 12:26:10;;;;;;;12.48;6.97;;;13.00;99.90;;;;;;4991245;28;20072;-68
2022/01/01 12:28:37;;;;;;;10.25;4.75;;;13.00;99.90;;;;;;4991552;28;20061;-68
2022/01/01 12:31:15;;;;;;;12.23;6.40;;;13.00;99.90;;;;;;4974849;28;20042;-68
2022/01/01 12:33:46;;;;;;;13.60;6.32;;;13.00;99.90;;;;;;4979016;28;20081;-69
2022/01/01 12:36:19;;;;;;;13.35;6.03;;;13.00;99.90;;;;;;5004173;28;20038;-68
2022/01/01 12:38:50;;;;;;;15.60;7.35;;;13.00;99.90;;;;;;5004373;28;20038;-68